Groveland, MA (01834)

7:20 AM EDT on July 28, 2015 (GMT -0400)
Bradford MA | | Change Station
CLOSE
Current Station
Personal Weather Station
Location: Bradford MA, MA
Elevation: 167 ft
Nearby Weather Stations

Elev 167 ft 42.75 °N, 71.06 °W | Updated 20 seconds ago

Partly Cloudy
Partly Cloudy
68.9 °F
Feels Like 68.9 °F
N
4.0
Wind Variable Wind from SW
Gusts 6.0 mph

Today
High -- | Low -- °F
--% Chance of Precip.
Yesterday
High -- | Low -- °F
Precip. -- in
5:31 AM 8:09 PM
Waxing Gibbous, 89% visible
Pressure 30.01 in
Visibility 5.0 miles
Clouds Clear
Dew Point 67 °F
Humidity 94%
Rainfall 0.00 in
Snow Depth Not available.
UV 1 out of 12
Pollen 5.10 out of 12
Air Quality Not available.
Flu Activity Not available.
METAR KLWM 281054Z 00000KT 5SM BR CLR 21/19 A3001 RMK AO2 SLP160 T02060194

More Conditions Fewer Conditions

Pressure 30.01 in
Visibility 5.0 miles
Clouds Clear
Dew Point 67 °F
Humidity 94%
Rainfall 0.00 in
Snow Depth Not available.
UV 1 out of 12
Pollen 5.10 out of 12
Air Quality Not available.
Flu Activity Not available.
METAR KLWM 281054Z 00000KT 5SM BR CLR 21/19 A3001 RMK AO2 SLP160 T02060194

More Conditions Fewer Conditions

10-Day Weather Forecast

×

Almanac

Astronomy

Jul. 28, 2015 Rise Set
Actual Time
Civil Twilight
Nautical Twilight
Astronomical Twilight
Moon
Length of Visible Light
Length of Day
Tomorrow will be .
, % of the Moon is Illuminated

Today's Extremes

State Highs State Lows

Community

WunderPhotos

Upload Photos

1,841,808 photos uploaded!

WunderBlogs® & News

Nearby

Air Quality

  Air Quality AQ Index Pollutant
Not available.

Snow Depth

Station Depth Elevation

Earthquake Activity

City Distance Mag. Time & Date
Minimum magnitude displayed is 2.5.

Coastal Water Temperatures

Place Temperature

Stations

Nearby Weather Stations

Station Location Temp. Windchill Dew Point Humidity Wind Precip. Elev Updated Type